sensor_id;sensor_type;location;lat;lon;timestamp;temperature;humidity
22680;DHT22;11507;44.858;10.374;2023-02-15T00:01:40;0.90;99.90
22680;DHT22;11507;44.858;10.374;2023-02-15T00:04:07;0.80;99.90
22680;DHT22;11507;44.858;10.374;2023-02-15T00:06:33;0.80;99.90
22680;DHT22;11507;44.858;10.374;2023-02-15T00:09:00;0.70;99.90
22680;DHT22;11507;44.858;10.374;2023-02-15T00:11:26;0.70;99.90
22680;DHT22;11507;44.858;10.374;2023-02-15T00:14:22;0.80;99.90
22680;DHT22;11507;44.858;10.374;2023-02-15T00:16:49;1.00;99.90
22680;DHT22;11507;44.858;10.374;2023-02-15T00:19:15;1.20;99.90
22680;DHT22;11507;44.858;10.374;2023-02-15T00:21:42;1.40;99.90
22680;DHT22;11507;44.858;10.374;2023-02-15T00:24:09;1.60;99.90
22680;DHT22;11507;44.858;10.374;2023-02-15T00:26:35;1.80;99.90
22680;DHT22;11507;44.858;10.374;2023-02-15T00:29:00;2.00;99.90
22680;DHT22;11507;44.858;10.374;2023-02-15T00:31:27;2.10;99.90
22680;DHT22;11507;44.858;10.374;2023-02-15T00:33:55;2.10;99.90
22680;DHT22;11507;44.858;10.374;2023-02-15T00:36:20;2.00;99.90
22680;DHT22;11507;44.858;10.374;2023-02-15T00:38:48;2.00;99.90
22680;DHT22;11507;44.858;10.374;2023-02-15T00:41:13;2.10;99.90
22680;DHT22;11507;44.858;10.374;2023-02-15T00:43:41;2.20;99.90
22680;DHT22;11507;44.858;10.374;2023-02-15T00:46:06;2.30;99.90
22680;DHT22;11507;44.858;10.374;2023-02-15T00:48:32;2.20;99.90
22680;DHT22;11507;44.858;10.374;2023-02-15T00:50:59;2.10;99.90
22680;DHT22;11507;44.858;10.374;2023-02-15T00:53:26;2.00;99.90
22680;DHT22;11507;44.858;10.374;2023-02-15T00:55:52;2.00;99.90
22680;DHT22;11507;44.858;10.374;2023-02-15T00:58:17;1.90;99.90
22680;DHT22;11507;44.858;10.374;2023-02-15T01:00:45;1.90;99.90
22680;DHT22;11507;44.858;10.374;2023-02-15T01:03:12;2.00;99.90
22680;DHT22;11507;44.858;10.374;2023-02-15T01:05:38;1.90;99.90
22680;DHT22;11507;44.858;10.374;2023-02-15T01:08:04;2.00;99.90
22680;DHT22;11507;44.858;10.374;2023-02-15T01:10:30;2.00;99.90
22680;DHT22;11507;44.858;10.374;2023-02-15T01:12:55;2.00;99.90
22680;DHT22;11507;44.858;10.374;2023-02-15T01:15:21;1.90;99.90
22680;DHT22;11507;44.858;10.374;2023-02-15T01:17:47;2.00;99.90
22680;DHT22;11507;44.858;10.374;2023-02-15T01:20:19;2.10;99.90
22680;DHT22;11507;44.858;10.374;2023-02-15T01:22:45;2.10;99.90
22680;DHT22;11507;44.858;10.374;2023-02-15T01:25:12;2.10;99.90
22680;DHT22;11507;44.858;10.374;2023-02-15T01:27:37;2.20;99.90
22680;DHT22;11507;44.858;10.374;2023-02-15T01:30:05;2.20;99.90
22680;DHT22;11507;44.858;10.374;2023-02-15T01:32:31;2.20;99.90
22680;DHT22;11507;44.858;10.374;2023-02-15T01:34:56;2.20;99.90
22680;DHT22;11507;44.858;10.374;2023-02-15T01:37:22;2.10;99.90
22680;DHT22;11507;44.858;10.374;2023-02-15T01:39:48;2.00;99.90
22680;DHT22;11507;44.858;10.374;2023-02-15T01:42:20;2.00;99.90
22680;DHT22;11507;44.858;10.374;2023-02-15T01:44:47;2.00;99.90
22680;DHT22;11507;44.858;10.374;2023-02-15T01:47:24;2.00;99.90
22680;DHT22;11507;44.858;10.374;2023-02-15T01:50:02;2.10;99.90
22680;DHT22;11507;44.858;10.374;2023-02-15T01:52:29;2.10;99.90
22680;DHT22;11507;44.858;10.374;2023-02-15T01:54:55;2.20;99.90
22680;DHT22;11507;44.858;10.374;2023-02-15T01:57:22;2.20;99.90
22680;DHT22;11507;44.858;10.374;2023-02-15T01:59:52;2.10;99.90
22680;DHT22;11507;44.858;10.374;2023-02-15T02:02:21;2.00;99.90
22680;DHT22;11507;44.858;10.374;2023-02-15T02:04:52;2.00;99.90
22680;DHT22;11507;44.858;10.374;2023-02-15T02:07:19;1.90;99.90
22680;DHT22;11507;44.858;10.374;2023-02-15T02:09:45;1.80;99.90
22680;DHT22;11507;44.858;10.374;2023-02-15T02:12:11;1.70;99.90
22680;DHT22;11507;44.858;10.374;2023-02-15T02:14:39;1.60;99.90
22680;DHT22;11507;44.858;10.374;2023-02-15T02:27:18;1.10;99.90
22680;DHT22;11507;44.858;10.374;2023-02-15T02:35:07;0.90;99.90
22680;DHT22;11507;44.858;10.374;2023-02-15T02:38:10;0.90;99.90
22680;DHT22;11507;44.858;10.374;2023-02-15T02:43:29;0.80;99.90
22680;DHT22;11507;44.858;10.374;2023-02-15T02:46:10;0.80;99.90
22680;DHT22;11507;44.858;10.374;2023-02-15T02:48:32;0.70;99.90
22680;DHT22;11507;44.858;10.374;2023-02-15T02:50:58;0.70;99.90
22680;DHT22;11507;44.858;10.374;2023-02-15T02:53:24;0.60;99.90
22680;DHT22;11507;44.858;10.374;2023-02-15T02:55:52;0.60;99.90
22680;DHT22;11507;44.858;10.374;2023-02-15T02:58:28;0.50;99.90
22680;DHT22;11507;44.858;10.374;2023-02-15T03:01:02;0.50;99.90
22680;DHT22;11507;44.858;10.374;2023-02-15T03:03:37;0.40;99.90
22680;DHT22;11507;44.858;10.374;2023-02-15T03:06:06;0.40;99.90
22680;DHT22;11507;44.858;10.374;2023-02-15T03:08:35;0.40;99.90
22680;DHT22;11507;44.858;10.374;2023-02-15T03:11:02;0.40;99.90
22680;DHT22;11507;44.858;10.374;2023-02-15T03:13:29;0.40;99.90
22680;DHT22;11507;44.858;10.374;2023-02-15T03:15:55;0.30;99.90
22680;DHT22;11507;44.858;10.374;2023-02-15T03:18:44;0.20;99.90
22680;DHT22;11507;44.858;10.374;2023-02-15T03:21:21;0.10;99.90
22680;DHT22;11507;44.858;10.374;2023-02-15T03:23:59;-0.10;99.90
22680;DHT22;11507;44.858;10.374;2023-02-15T03:26:27;-0.20;99.90
22680;DHT22;11507;44.858;10.374;2023-02-15T03:28:54;-0.30;99.90
22680;DHT22;11507;44.858;10.374;2023-02-15T03:31:22;-0.40;99.90
22680;DHT22;11507;44.858;10.374;2023-02-15T03:33:58;-0.60;99.90
22680;DHT22;11507;44.858;10.374;2023-02-15T03:44:30;-0.90;99.90
22680;DHT22;11507;44.858;10.374;2023-02-15T03:47:02;-1.00;99.90
22680;DHT22;11507;44.858;10.374;2023-02-15T03:49:32;-1.10;99.90
22680;DHT22;11507;44.858;10.374;2023-02-15T03:52:02;-1.10;99.90
22680;DHT22;11507;44.858;10.374;2023-02-15T03:54:29;-1.10;99.90
22680;DHT22;11507;44.858;10.374;2023-02-15T03:57:19;-1.10;99.90
22680;DHT22;11507;44.858;10.374;2023-02-15T04:00:08;-1.10;99.90
22680;DHT22;11507;44.858;10.374;2023-02-15T04:05:22;-0.90;99.90
22680;DHT22;11507;44.858;10.374;2023-02-15T04:07:48;-0.70;99.90
22680;DHT22;11507;44.858;10.374;2023-02-15T04:10:13;-0.40;99.90
22680;DHT22;11507;44.858;10.374;2023-02-15T04:12:58;-0.20;99.90
22680;DHT22;11507;44.858;10.374;2023-02-15T04:15:24;-0.10;99.90
22680;DHT22;11507;44.858;10.374;2023-02-15T04:18:09;0.00;99.90
22680;DHT22;11507;44.858;10.374;2023-02-15T04:20:35;-0.20;99.90
22680;DHT22;11507;44.858;10.374;2023-02-15T04:23:19;-0.20;99.90
22680;DHT22;11507;44.858;10.374;2023-02-15T04:26:03;-0.20;99.90
22680;DHT22;11507;44.858;10.374;2023-02-15T04:28:30;-0.20;99.90
22680;DHT22;11507;44.858;10.374;2023-02-15T04:30:55;-0.30;99.90
22680;DHT22;11507;44.858;10.374;2023-02-15T04:33:22;-0.30;99.90
22680;DHT22;11507;44.858;10.374;2023-02-15T04:35:47;-0.20;99.90
22680;DHT22;11507;44.858;10.374;2023-02-15T04:38:14;-0.20;99.90
22680;DHT22;11507;44.858;10.374;2023-02-15T04:40:39;-0.30;99.90
22680;DHT22;11507;44.858;10.374;2023-02-15T04:43:05;-0.40;99.90
22680;DHT22;11507;44.858;10.374;2023-02-15T04:45:32;-0.50;99.90
22680;DHT22;11507;44.858;10.374;2023-02-15T04:47:57;-0.70;99.90
22680;DHT22;11507;44.858;10.374;2023-02-15T04:50:23;-0.90;99.90
22680;DHT22;11507;44.858;10.374;2023-02-15T04:52:49;-1.00;99.90
22680;DHT22;11507;44.858;10.374;2023-02-15T04:55:15;-1.10;99.90
22680;DHT22;11507;44.858;10.374;2023-02-15T04:57:41;-1.10;99.90
22680;DHT22;11507;44.858;10.374;2023-02-15T05:00:06;-0.90;99.90
22680;DHT22;11507;44.858;10.374;2023-02-15T05:02:34;-0.70;99.90
22680;DHT22;11507;44.858;10.374;2023-02-15T05:04:59;-0.70;99.90
22680;DHT22;11507;44.858;10.374;2023-02-15T05:07:25;-0.60;99.90
22680;DHT22;11507;44.858;10.374;2023-02-15T05:09:51;-0.70;99.90
22680;DHT22;11507;44.858;10.374;2023-02-15T05:12:17;-0.80;99.90
22680;DHT22;11507;44.858;10.374;2023-02-15T05:14:42;-0.80;99.90
22680;DHT22;11507;44.858;10.374;2023-02-15T05:17:08;-0.70;99.90
22680;DHT22;11507;44.858;10.374;2023-02-15T05:19:34;-0.70;99.90
22680;DHT22;11507;44.858;10.374;2023-02-15T05:22:00;-0.70;99.90
22680;DHT22;11507;44.858;10.374;2023-02-15T05:24:25;-0.70;99.90
22680;DHT22;11507;44.858;10.374;2023-02-15T05:27:14;-0.70;99.90
22680;DHT22;11507;44.858;10.374;2023-02-15T05:29:59;-0.70;99.90
22680;DHT22;11507;44.858;10.374;2023-02-15T05:32:24;-0.60;99.90
22680;DHT22;11507;44.858;10.374;2023-02-15T05:34:50;-0.60;99.90
22680;DHT22;11507;44.858;10.374;2023-02-15T05:37:16;-0.60;99.90
22680;DHT22;11507;44.858;10.374;2023-02-15T05:39:42;-0.60;99.90
22680;DHT22;11507;44.858;10.374;2023-02-15T05:42:07;-0.50;99.90
22680;DHT22;11507;44.858;10.374;2023-02-15T05:44:33;-0.40;99.90
22680;DHT22;11507;44.858;10.374;2023-02-15T05:47:01;-0.40;99.90
22680;DHT22;11507;44.858;10.374;2023-02-15T05:49:28;-0.30;99.90
22680;DHT22;11507;44.858;10.374;2023-02-15T05:51:54;-0.30;99.90
22680;DHT22;11507;44.858;10.374;2023-02-15T05:54:20;-0.20;99.90
22680;DHT22;11507;44.858;10.374;2023-02-15T05:56:45;-0.20;99.90
22680;DHT22;11507;44.858;10.374;2023-02-15T05:59:11;-0.20;99.90
22680;DHT22;11507;44.858;10.374;2023-02-15T06:01:38;-0.10;99.90
22680;DHT22;11507;44.858;10.374;2023-02-15T06:04:03;-0.10;99.90
22680;DHT22;11507;44.858;10.374;2023-02-15T06:06:29;-0.10;99.90
22680;DHT22;11507;44.858;10.374;2023-02-15T06:08:55;-0.10;99.90
22680;DHT22;11507;44.858;10.374;2023-02-15T06:11:21;-0.20;99.90
22680;DHT22;11507;44.858;10.374;2023-02-15T06:13:46;-0.20;99.90
22680;DHT22;11507;44.858;10.374;2023-02-15T06:16:12;-0.10;99.90
22680;DHT22;11507;44.858;10.374;2023-02-15T06:18:38;-0.20;99.90
22680;DHT22;11507;44.858;10.374;2023-02-15T06:21:13;-0.30;99.90
22680;DHT22;11507;44.858;10.374;2023-02-15T06:23:39;-0.30;99.90
22680;DHT22;11507;44.858;10.374;2023-02-15T06:26:06;-0.30;99.90
22680;DHT22;11507;44.858;10.374;2023-02-15T06:28:31;-0.30;99.90
22680;DHT22;11507;44.858;10.374;2023-02-15T06:30:58;-0.30;99.90
22680;DHT22;11507;44.858;10.374;2023-02-15T06:33:24;-0.30;99.90
22680;DHT22;11507;44.858;10.374;2023-02-15T06:35:49;-0.30;99.90
22680;DHT22;11507;44.858;10.374;2023-02-15T06:38:15;-0.40;99.90
22680;DHT22;11507;44.858;10.374;2023-02-15T06:40:41;-0.40;99.90
22680;DHT22;11507;44.858;10.374;2023-02-15T06:43:07;-0.40;99.90
22680;DHT22;11507;44.858;10.374;2023-02-15T06:45:33;-0.40;99.90
22680;DHT22;11507;44.858;10.374;2023-02-15T06:47:59;-0.30;99.90
22680;DHT22;11507;44.858;10.374;2023-02-15T06:50:27;-0.10;99.90
22680;DHT22;11507;44.858;10.374;2023-02-15T06:52:57;0.10;99.90
22680;DHT22;11507;44.858;10.374;2023-02-15T06:55:23;0.40;99.90
22680;DHT22;11507;44.858;10.374;2023-02-15T06:57:49;0.60;99.90
22680;DHT22;11507;44.858;10.374;2023-02-15T07:00:14;0.80;99.90
22680;DHT22;11507;44.858;10.374;2023-02-15T07:02:41;1.00;99.90
22680;DHT22;11507;44.858;10.374;2023-02-15T07:05:08;1.10;99.90
22680;DHT22;11507;44.858;10.374;2023-02-15T07:07:34;1.30;99.90
22680;DHT22;11507;44.858;10.374;2023-02-15T07:09:59;1.40;99.90
22680;DHT22;11507;44.858;10.374;2023-02-15T07:12:26;1.50;99.90
22680;DHT22;11507;44.858;10.374;2023-02-15T07:15:08;1.60;99.90
22680;DHT22;11507;44.858;10.374;2023-02-15T07:17:35;1.80;99.90
22680;DHT22;11507;44.858;10.374;2023-02-15T07:20:02;2.10;99.90
22680;DHT22;11507;44.858;10.374;2023-02-15T07:22:28;2.50;99.90
22680;DHT22;11507;44.858;10.374;2023-02-15T07:24:54;2.90;99.90
22680;DHT22;11507;44.858;10.374;2023-02-15T07:27:22;3.30;99.90
22680;DHT22;11507;44.858;10.374;2023-02-15T07:29:47;3.70;99.90
22680;DHT22;11507;44.858;10.374;2023-02-15T07:32:13;4.00;99.90
22680;DHT22;11507;44.858;10.374;2023-02-15T07:34:39;4.20;99.90
22680;DHT22;11507;44.858;10.374;2023-02-15T07:37:05;4.20;99.90
22680;DHT22;11507;44.858;10.374;2023-02-15T07:39:32;4.40;99.90
22680;DHT22;11507;44.858;10.374;2023-02-15T07:41:59;4.50;99.90
22680;DHT22;11507;44.858;10.374;2023-02-15T07:44:29;4.60;99.90
22680;DHT22;11507;44.858;10.374;2023-02-15T07:46:55;4.60;99.90
22680;DHT22;11507;44.858;10.374;2023-02-15T07:49:21;4.70;99.90
22680;DHT22;11507;44.858;10.374;2023-02-15T07:51:48;4.80;99.90
22680;DHT22;11507;44.858;10.374;2023-02-15T07:54:14;4.90;99.90
22680;DHT22;11507;44.858;10.374;2023-02-15T07:56:40;5.00;99.90
22680;DHT22;11507;44.858;10.374;2023-02-15T07:59:06;5.10;99.90
22680;DHT22;11507;44.858;10.374;2023-02-15T08:01:37;5.20;99.90
22680;DHT22;11507;44.858;10.374;2023-02-15T08:04:04;5.30;99.90
22680;DHT22;11507;44.858;10.374;2023-02-15T08:06:33;5.30;99.90
22680;DHT22;11507;44.858;10.374;2023-02-15T08:08:59;5.40;99.90
22680;DHT22;11507;44.858;10.374;2023-02-15T08:11:27;5.40;99.90
22680;DHT22;11507;44.858;10.374;2023-02-15T08:18:58;6.00;99.90
22680;DHT22;11507;44.858;10.374;2023-02-15T08:21:27;6.20;99.90
22680;DHT22;11507;44.858;10.374;2023-02-15T08:23:54;6.30;99.90
22680;DHT22;11507;44.858;10.374;2023-02-15T08:26:20;6.50;99.90
22680;DHT22;11507;44.858;10.374;2023-02-15T08:28:47;6.70;99.90
22680;DHT22;11507;44.858;10.374;2023-02-15T08:31:14;6.90;99.90
22680;DHT22;11507;44.858;10.374;2023-02-15T08:36:10;7.20;99.90
22680;DHT22;11507;44.858;10.374;2023-02-15T08:38:37;7.40;99.90
22680;DHT22;11507;44.858;10.374;2023-02-15T08:41:17;7.70;99.90
22680;DHT22;11507;44.858;10.374;2023-02-15T08:43:44;7.90;99.90
22680;DHT22;11507;44.858;10.374;2023-02-15T08:46:12;8.10;99.90
22680;DHT22;11507;44.858;10.374;2023-02-15T08:48:38;8.20;99.90
22680;DHT22;11507;44.858;10.374;2023-02-15T08:51:08;8.40;99.90
22680;DHT22;11507;44.858;10.374;2023-02-15T08:53:36;8.50;99.90
22680;DHT22;11507;44.858;10.374;2023-02-15T08:56:03;8.70;99.90
22680;DHT22;11507;44.858;10.374;2023-02-15T08:58:29;9.10;99.90
22680;DHT22;11507;44.858;10.374;2023-02-15T09:00:56;9.60;99.90
22680;DHT22;11507;44.858;10.374;2023-02-15T09:03:24;10.00;99.90
22680;DHT22;11507;44.858;10.374;2023-02-15T09:05:50;10.50;99.90
22680;DHT22;11507;44.858;10.374;2023-02-15T09:08:16;10.80;99.90
22680;DHT22;11507;44.858;10.374;2023-02-15T09:10:42;11.00;99.90
22680;DHT22;11507;44.858;10.374;2023-02-15T09:13:07;11.30;99.90
22680;DHT22;11507;44.858;10.374;2023-02-15T09:15:33;11.30;99.90
22680;DHT22;11507;44.858;10.374;2023-02-15T09:18:00;11.50;99.90
22680;DHT22;11507;44.858;10.374;2023-02-15T09:20:29;11.60;99.90
22680;DHT22;11507;44.858;10.374;2023-02-15T09:22:55;12.00;99.90
22680;DHT22;11507;44.858;10.374;2023-02-15T09:25:21;12.00;99.90
22680;DHT22;11507;44.858;10.374;2023-02-15T09:27:47;12.30;99.90
22680;DHT22;11507;44.858;10.374;2023-02-15T09:30:13;12.50;99.90
22680;DHT22;11507;44.858;10.374;2023-02-15T09:32:39;12.90;99.90
22680;DHT22;11507;44.858;10.374;2023-02-15T09:35:05;13.10;99.90
22680;DHT22;11507;44.858;10.374;2023-02-15T09:37:31;13.50;99.90
22680;DHT22;11507;44.858;10.374;2023-02-15T09:39:57;13.80;99.90
22680;DHT22;11507;44.858;10.374;2023-02-15T09:50:13;15.30;96.70
22680;DHT22;11507;44.858;10.374;2023-02-15T10:00:24;16.30;95.00
22680;DHT22;11507;44.858;10.374;2023-02-15T10:14:02;18.40;88.20
22680;DHT22;11507;44.858;10.374;2023-02-15T10:24:49;18.90;79.40
22680;DHT22;11507;44.858;10.374;2023-02-15T10:27:22;19.30;78.30
22680;DHT22;11507;44.858;10.374;2023-02-15T10:32:27;19.10;78.10
22680;DHT22;11507;44.858;10.374;2023-02-15T10:40:20;20.10;73.30
22680;DHT22;11507;44.858;10.374;2023-02-15T10:50:41;22.40;63.40
22680;DHT22;11507;44.858;10.374;2023-02-15T10:53:13;22.70;61.70
22680;DHT22;11507;44.858;10.374;2023-02-15T10:58:38;23.10;59.20
22680;DHT22;11507;44.858;10.374;2023-02-15T11:06:22;25.00;56.50
22680;DHT22;11507;44.858;10.374;2023-02-15T11:08:53;25.80;53.60
22680;DHT22;11507;44.858;10.374;2023-02-15T11:11:26;25.70;51.90
22680;DHT22;11507;44.858;10.374;2023-02-15T11:13:56;25.70;51.20
22680;DHT22;11507;44.858;10.374;2023-02-15T11:16:28;25.20;51.60
22680;DHT22;11507;44.858;10.374;2023-02-15T11:21:26;25.60;51.10
22680;DHT22;11507;44.858;10.374;2023-02-15T11:23:55;25.60;51.30
22680;DHT22;11507;44.858;10.374;2023-02-15T11:26:28;26.20;51.30
22680;DHT22;11507;44.858;10.374;2023-02-15T11:29:18;26.60;50.00
22680;DHT22;11507;44.858;10.374;2023-02-15T11:31:55;27.10;47.70
22680;DHT22;11507;44.858;10.374;2023-02-15T11:36:58;26.60;48.70
22680;DHT22;11507;44.858;10.374;2023-02-15T11:39:26;26.90;47.90
22680;DHT22;11507;44.858;10.374;2023-02-15T11:41:56;27.30;48.60
22680;DHT22;11507;44.858;10.374;2023-02-15T11:46:51;26.90;47.10
22680;DHT22;11507;44.858;10.374;2023-02-15T11:51:50;27.60;47.40
22680;DHT22;11507;44.858;10.374;2023-02-15T11:54:18;27.90;47.70
22680;DHT22;11507;44.858;10.374;2023-02-15T11:56:45;28.60;46.30
22680;DHT22;11507;44.858;10.374;2023-02-15T11:59:13;29.40;46.80
22680;DHT22;11507;44.858;10.374;2023-02-15T12:04:17;30.60;43.40
22680;DHT22;11507;44.858;10.374;2023-02-15T12:06:46;30.30;41.70
22680;DHT22;11507;44.858;10.374;2023-02-15T12:11:45;30.00;42.70
22680;DHT22;11507;44.858;10.374;2023-02-15T12:14:12;30.40;44.60
22680;DHT22;11507;44.858;10.374;2023-02-15T12:16:48;31.00;41.90
22680;DHT22;11507;44.858;10.374;2023-02-15T12:21:57;32.30;41.30
22680;DHT22;11507;44.858;10.374;2023-02-15T12:24:34;32.70;38.60
22680;DHT22;11507;44.858;10.374;2023-02-15T12:29:30;33.60;38.60
22680;DHT22;11507;44.858;10.374;2023-02-15T12:31:58;33.80;36.50
22680;DHT22;11507;44.858;10.374;2023-02-15T12:36:54;33.80;35.90
22680;DHT22;11507;44.858;10.374;2023-02-15T12:39:25;33.90;35.10
22680;DHT22;11507;44.858;10.374;2023-02-15T12:42:03;33.00;35.00
22680;DHT22;11507;44.858;10.374;2023-02-15T12:44:34;32.30;35.00
22680;DHT22;11507;44.858;10.374;2023-02-15T12:47:02;32.40;36.60
22680;DHT22;11507;44.858;10.374;2023-02-15T12:49:30;32.80;36.50
22680;DHT22;11507;44.858;10.374;2023-02-15T12:51:57;33.50;35.80
22680;DHT22;11507;44.858;10.374;2023-02-15T12:56:50;34.00;33.20
22680;DHT22;11507;44.858;10.374;2023-02-15T12:59:16;34.20;33.80
22680;DHT22;11507;44.858;10.374;2023-02-15T13:01:46;34.40;33.90
22680;DHT22;11507;44.858;10.374;2023-02-15T13:06:48;35.50;34.50
22680;DHT22;11507;44.858;10.374;2023-02-15T13:09:15;35.40;32.70
22680;DHT22;11507;44.858;10.374;2023-02-15T13:11:43;35.50;31.90
22680;DHT22;11507;44.858;10.374;2023-02-15T13:14:28;35.30;32.30
22680;DHT22;11507;44.858;10.374;2023-02-15T13:16:56;35.40;31.20
22680;DHT22;11507;44.858;10.374;2023-02-15T13:21:52;35.40;32.90
22680;DHT22;11507;44.858;10.374;2023-02-15T13:24:22;35.80;32.10
22680;DHT22;11507;44.858;10.374;2023-02-15T13:26:49;36.20;30.90
22680;DHT22;11507;44.858;10.374;2023-02-15T13:29:17;36.10;29.90
22680;DHT22;11507;44.858;10.374;2023-02-15T13:31:45;36.10;30.10
22680;DHT22;11507;44.858;10.374;2023-02-15T13:34:30;36.00;29.30
22680;DHT22;11507;44.858;10.374;2023-02-15T13:37:05;36.10;29.80
22680;DHT22;11507;44.858;10.374;2023-02-15T13:54:43;37.90;29.90
22680;DHT22;11507;44.858;10.374;2023-02-15T14:18:22;32.90;30.00
22680;DHT22;11507;44.858;10.374;2023-02-15T14:20:47;31.20;31.90
22680;DHT22;11507;44.858;10.374;2023-02-15T14:23:28;29.20;32.80
22680;DHT22;11507;44.858;10.374;2023-02-15T14:28:51;26.30;36.70
22680;DHT22;11507;44.858;10.374;2023-02-15T14:31:25;25.30;39.80
22680;DHT22;11507;44.858;10.374;2023-02-15T14:33:54;24.30;41.10
22680;DHT22;11507;44.858;10.374;2023-02-15T14:36:20;23.40;42.20
22680;DHT22;11507;44.858;10.374;2023-02-15T14:41:31;22.00;44.10
22680;DHT22;11507;44.858;10.374;2023-02-15T14:44:15;21.60;44.30
22680;DHT22;11507;44.858;10.374;2023-02-15T14:46:46;21.30;45.20
22680;DHT22;11507;44.858;10.374;2023-02-15T14:49:22;21.00;45.90
22680;DHT22;11507;44.858;10.374;2023-02-15T14:56:43;20.20;47.50
22680;DHT22;11507;44.858;10.374;2023-02-15T14:59:22;20.00;47.80
22680;DHT22;11507;44.858;10.374;2023-02-15T15:02:10;19.60;48.50
22680;DHT22;11507;44.858;10.374;2023-02-15T15:04:42;19.40;48.90
22680;DHT22;11507;44.858;10.374;2023-02-15T15:09:39;18.80;50.50
22680;DHT22;11507;44.858;10.374;2023-02-15T15:12:13;18.70;50.90
22680;DHT22;11507;44.858;10.374;2023-02-15T15:14:40;18.50;51.50
22680;DHT22;11507;44.858;10.374;2023-02-15T15:17:06;18.30;52.50
22680;DHT22;11507;44.858;10.374;2023-02-15T15:22:20;17.90;53.50
22680;DHT22;11507;44.858;10.374;2023-02-15T15:24:56;17.80;52.90
22680;DHT22;11507;44.858;10.374;2023-02-15T15:30:46;17.50;53.10
22680;DHT22;11507;44.858;10.374;2023-02-15T15:43:31;16.60;56.00
22680;DHT22;11507;44.858;10.374;2023-02-15T15:48:37;16.30;56.30
22680;DHT22;11507;44.858;10.374;2023-02-15T15:51:26;16.20;58.20
22680;DHT22;11507;44.858;10.374;2023-02-15T15:53:50;16.00;58.60
22680;DHT22;11507;44.858;10.374;2023-02-15T15:56:26;15.90;59.20
22680;DHT22;11507;44.858;10.374;2023-02-15T15:58:54;15.80;59.10
22680;DHT22;11507;44.858;10.374;2023-02-15T16:01:26;15.60;59.60
22680;DHT22;11507;44.858;10.374;2023-02-15T16:03:55;15.40;60.10
22680;DHT22;11507;44.858;10.374;2023-02-15T16:08:53;15.10;61.40
22680;DHT22;11507;44.858;10.374;2023-02-15T16:11:22;15.00;62.10
22680;DHT22;11507;44.858;10.374;2023-02-15T16:13:48;14.80;62.80
22680;DHT22;11507;44.858;10.374;2023-02-15T16:16:19;14.70;64.10
22680;DHT22;11507;44.858;10.374;2023-02-15T16:18:46;14.50;65.00
22680;DHT22;11507;44.858;10.374;2023-02-15T16:21:17;14.30;65.50
22680;DHT22;11507;44.858;10.374;2023-02-15T16:27:18;14.00;66.40
22680;DHT22;11507;44.858;10.374;2023-02-15T16:29:28;13.80;67.20
22680;DHT22;11507;44.858;10.374;2023-02-15T16:32:01;13.60;67.90
22680;DHT22;11507;44.858;10.374;2023-02-15T16:34:27;13.50;68.50
22680;DHT22;11507;44.858;10.374;2023-02-15T16:37:12;13.30;69.10
22680;DHT22;11507;44.858;10.374;2023-02-15T16:39:40;13.10;69.50
22680;DHT22;11507;44.858;10.374;2023-02-15T16:42:06;12.90;70.20
22680;DHT22;11507;44.858;10.374;2023-02-15T16:44:32;12.70;71.20
22680;DHT22;11507;44.858;10.374;2023-02-15T16:46:58;12.50;72.30
22680;DHT22;11507;44.858;10.374;2023-02-15T16:49:25;12.40;73.20
22680;DHT22;11507;44.858;10.374;2023-02-15T16:52:02;12.30;73.80
22680;DHT22;11507;44.858;10.374;2023-02-15T16:54:28;12.10;74.80
22680;DHT22;11507;44.858;10.374;2023-02-15T16:56:55;11.90;75.10
22680;DHT22;11507;44.858;10.374;2023-02-15T17:01:50;11.60;78.10
22680;DHT22;11507;44.858;10.374;2023-02-15T17:07:02;11.20;81.90
22680;DHT22;11507;44.858;10.374;2023-02-15T17:09:28;11.00;83.60
22680;DHT22;11507;44.858;10.374;2023-02-15T17:11:54;10.70;86.80
22680;DHT22;11507;44.858;10.374;2023-02-15T17:14:21;10.50;88.60
22680;DHT22;11507;44.858;10.374;2023-02-15T17:17:34;10.30;90.30
22680;DHT22;11507;44.858;10.374;2023-02-15T17:19:44;10.20;91.60
22680;DHT22;11507;44.858;10.374;2023-02-15T17:22:20;9.90;92.90
22680;DHT22;11507;44.858;10.374;2023-02-15T17:24:47;9.80;95.00
22680;DHT22;11507;44.858;10.374;2023-02-15T17:27:18;9.60;96.40
22680;DHT22;11507;44.858;10.374;2023-02-15T17:29:52;9.50;97.70
22680;DHT22;11507;44.858;10.374;2023-02-15T17:32:21;9.30;99.40
22680;DHT22;11507;44.858;10.374;2023-02-15T17:40:19;8.70;99.90
22680;DHT22;11507;44.858;10.374;2023-02-15T17:42:46;8.60;99.90
22680;DHT22;11507;44.858;10.374;2023-02-15T17:45:12;8.40;99.90
22680;DHT22;11507;44.858;10.374;2023-02-15T17:47:37;8.30;99.90
22680;DHT22;11507;44.858;10.374;2023-02-15T17:50:05;8.20;99.90
22680;DHT22;11507;44.858;10.374;2023-02-15T17:52:31;8.10;99.90
22680;DHT22;11507;44.858;10.374;2023-02-15T17:54:58;8.00;99.90
22680;DHT22;11507;44.858;10.374;2023-02-15T17:57:42;7.90;99.90
22680;DHT22;11507;44.858;10.374;2023-02-15T18:00:09;7.80;99.90
22680;DHT22;11507;44.858;10.374;2023-02-15T18:02:57;7.70;99.90
22680;DHT22;11507;44.858;10.374;2023-02-15T18:05:41;7.50;99.90
22680;DHT22;11507;44.858;10.374;2023-02-15T18:08:26;7.40;99.90
22680;DHT22;11507;44.858;10.374;2023-02-15T18:11:11;7.40;99.90
22680;DHT22;11507;44.858;10.374;2023-02-15T18:13:55;7.30;99.90
22680;DHT22;11507;44.858;10.374;2023-02-15T18:16:26;7.10;99.90
22680;DHT22;11507;44.858;10.374;2023-02-15T18:18:53;7.10;99.90
22680;DHT22;11507;44.858;10.374;2023-02-15T18:21:19;6.90;99.90
22680;DHT22;11507;44.858;10.374;2023-02-15T18:23:45;6.80;99.90
22680;DHT22;11507;44.858;10.374;2023-02-15T18:26:16;6.60;99.90
22680;DHT22;11507;44.858;10.374;2023-02-15T18:28:43;6.50;99.90
22680;DHT22;11507;44.858;10.374;2023-02-15T18:31:09;6.40;99.90
22680;DHT22;11507;44.858;10.374;2023-02-15T18:33:37;6.20;99.90
22680;DHT22;11507;44.858;10.374;2023-02-15T18:36:04;6.10;99.90
22680;DHT22;11507;44.858;10.374;2023-02-15T18:38:31;6.00;99.90
22680;DHT22;11507;44.858;10.374;2023-02-15T18:40:57;5.90;99.90
22680;DHT22;11507;44.858;10.374;2023-02-15T18:43:23;5.90;99.90
22680;DHT22;11507;44.858;10.374;2023-02-15T18:45:50;5.80;99.90
22680;DHT22;11507;44.858;10.374;2023-02-15T18:48:15;5.80;99.90
22680;DHT22;11507;44.858;10.374;2023-02-15T18:50:41;5.70;99.90
22680;DHT22;11507;44.858;10.374;2023-02-15T18:53:12;5.70;99.90
22680;DHT22;11507;44.858;10.374;2023-02-15T18:55:42;5.70;99.90
22680;DHT22;11507;44.858;10.374;2023-02-15T18:58:13;5.70;99.90
22680;DHT22;11507;44.858;10.374;2023-02-15T19:00:39;5.60;99.90
22680;DHT22;11507;44.858;10.374;2023-02-15T19:03:08;5.50;99.90
22680;DHT22;11507;44.858;10.374;2023-02-15T19:05:36;5.50;99.90